createdAt,value
2018-11-12T00:00:19.150Z,938.43
2018-11-12T00:01:20.230Z,938.45
2018-11-12T00:02:21.134Z,938.49
2018-11-12T00:03:22.380Z,938.46
2018-11-12T00:04:23.734Z,938.49
2018-11-12T00:05:24.534Z,938.52
2018-11-12T00:06:26.054Z,938.47
2018-11-12T00:07:26.853Z,938.49
2018-11-12T00:08:27.554Z,938.46
2018-11-12T00:09:28.350Z,938.4
2018-11-12T00:10:29.151Z,938.41
2018-11-12T00:11:29.942Z,938.4
2018-11-12T00:12:30.468Z,938.45
2018-11-12T00:13:30.985Z,938.38
2018-11-12T00:14:31.339Z,938.35
2018-11-12T00:15:32.132Z,938.32
2018-11-12T00:16:32.654Z,938.29
2018-11-12T00:17:34.010Z,938.27
2018-11-12T00:18:34.885Z,938.28
2018-11-12T00:19:35.405Z,938.27
2018-11-12T00:20:36.206Z,938.28
2018-11-12T00:21:37.279Z,938.27
2018-11-12T00:22:38.104Z,938.24
2018-11-12T00:23:38.459Z,938.25
2018-11-12T00:24:39.984Z,938.26
2018-11-12T00:25:40.510Z,938.24
2018-11-12T00:26:41.859Z,938.28
2018-11-12T00:27:42.937Z,938.21
2018-11-12T00:28:43.796Z,938.27
2018-11-12T00:29:45.150Z,938.23
2018-11-12T00:30:45.944Z,938.25
2018-11-12T00:31:46.738Z,938.32
2018-11-12T00:32:47.258Z,938.34
2018-11-12T00:33:48.167Z,938.42
2018-11-12T00:34:48.520Z,938.41
2018-11-12T00:35:49.316Z,938.46
2018-11-12T00:36:50.557Z,938.45
2018-11-12T00:37:51.186Z,938.43
2018-11-12T00:38:51.586Z,938.4
2018-11-12T00:39:52.662Z,938.44
2018-11-12T00:40:53.460Z,938.43
2018-11-12T00:41:53.813Z,938.44
2018-11-12T00:42:54.612Z,938.44
2018-11-12T00:43:55.687Z,938.44
2018-11-12T00:44:56.762Z,938.48
2018-11-12T00:45:57.683Z,938.46
2018-11-12T00:46:58.761Z,938.52
2018-11-12T00:47:59.392Z,938.54
2018-11-12T00:49:00.534Z,938.57
2018-11-12T00:50:01.057Z,938.54
2018-11-12T00:51:01.426Z,938.57
2018-11-12T00:52:01.945Z,938.55
2018-11-12T00:53:02.294Z,938.56
2018-11-12T00:54:03.647Z,938.54
2018-11-12T00:55:03.998Z,938.59
2018-11-12T00:56:04.517Z,938.59
2018-11-12T00:57:05.315Z,938.59
2018-11-12T00:58:06.397Z,938.62
2018-11-12T00:59:06.795Z,938.57
2018-11-12T01:00:07.873Z,938.54
2018-11-12T01:01:21.915Z,938.51
2018-11-12T01:02:22.480Z,938.56
2018-11-12T01:03:23.621Z,938.52
2018-11-12T01:04:24.141Z,938.47
2018-11-12T01:05:24.936Z,938.47
2018-11-12T01:06:26.174Z,938.48
2018-11-12T01:07:26.966Z,938.47
2018-11-12T01:08:27.765Z,938.44
2018-11-12T01:09:28.116Z,938.46
2018-11-12T01:10:28.637Z,938.51
2018-11-12T01:11:29.431Z,938.57
2018-11-12T01:12:30.575Z,938.59
2018-11-12T01:13:31.933Z,938.57
2018-11-12T01:14:33.007Z,938.55
2018-11-12T01:15:34.247Z,938.53
2018-11-12T01:16:34.765Z,938.55
2018-11-12T01:17:35.285Z,938.56
2018-11-12T01:18:35.800Z,938.58
2018-11-12T01:19:36.874Z,938.58
2018-11-12T01:20:38.115Z,938.62
2018-11-12T01:21:38.635Z,938.64
2018-11-12T01:22:40.033Z,938.59
2018-11-12T01:23:40.396Z,938.58
2018-11-12T01:24:40.911Z,938.56
2018-11-12T01:25:41.989Z,938.56
2018-11-12T01:26:43.063Z,938.57
2018-11-12T01:27:43.707Z,938.58
2018-11-12T01:28:44.493Z,938.59
2018-11-12T01:29:45.563Z,938.52
2018-11-12T01:30:46.356Z,938.52
2018-11-12T01:31:47.431Z,938.53
2018-11-12T01:32:47.828Z,938.57
2018-11-12T01:33:48.623Z,938.5
2018-11-12T01:34:48.974Z,938.46
2018-11-12T01:35:49.771Z,938.44
2018-11-12T01:36:51.012Z,938.46
2018-11-12T01:37:51.807Z,938.47
2018-11-12T01:38:52.602Z,938.48
2018-11-12T01:39:53.674Z,938.52
2018-11-12T01:40:54.468Z,938.51
2018-11-12T01:41:54.827Z,938.47
2018-11-12T01:42:55.886Z,938.51
2018-11-12T01:43:56.963Z,938.53
2018-11-12T01:44:58.037Z,938.54
2018-11-12T01:45:59.113Z,938.52
2018-11-12T01:46:59.910Z,938.53
2018-11-12T01:48:00.984Z,938.47
2018-11-12T01:49:01.790Z,938.48
2018-11-12T01:50:02.717Z,938.49
2018-11-12T01:51:03.513Z,938.49
2018-11-12T01:52:04.043Z,938.51
2018-11-12T01:53:05.166Z,938.46
2018-11-12T01:54:05.519Z,938.47
2018-11-12T01:55:06.595Z,938.4
2018-11-12T01:56:07.391Z,938.38
2018-11-12T01:57:08.296Z,938.38
2018-11-12T01:58:09.374Z,938.38
2018-11-12T01:59:09.896Z,938.37
2018-11-12T02:00:10.519Z,938.32
2018-11-12T02:01:11.044Z,938.31
2018-11-12T02:02:11.844Z,938.33
2018-11-12T02:03:12.738Z,938.29
2018-11-12T02:04:13.540Z,938.28
2018-11-12T02:05:13.892Z,938.26
2018-11-12T02:06:14.251Z,938.27
2018-11-12T02:07:15.325Z,938.32
2018-11-12T02:08:15.849Z,938.33
2018-11-12T02:09:16.646Z,938.36
2018-11-12T02:10:18.052Z,938.39
2018-11-12T02:11:18.414Z,938.39
2018-11-12T02:12:19.251Z,938.32
2018-11-12T02:13:19.815Z,938.35
2018-11-12T02:14:20.481Z,938.36
2018-11-12T02:15:21.267Z,938.42
2018-11-12T02:16:21.630Z,938.4
2018-11-12T02:17:22.538Z,938.47
2018-11-12T02:18:23.061Z,938.41
2018-11-12T02:19:24.577Z,938.45
2018-11-12T02:20:26.095Z,938.41
2018-11-12T02:21:26.613Z,938.45
2018-11-12T02:22:27.791Z,938.43
2018-11-12T02:23:28.722Z,938.4
2018-11-12T02:24:29.518Z,938.36
2018-11-12T02:25:29.870Z,938.37
2018-11-12T02:26:30.668Z,938.38
2018-11-12T02:27:31.590Z,938.41
2018-11-12T02:28:32.388Z,938.39
2018-11-12T02:29:33.291Z,938.36
2018-11-12T02:30:34.012Z,938.44
2018-11-12T02:31:35.164Z,938.42
2018-11-12T02:32:36.245Z,938.46
2018-11-12T02:33:36.884Z,938.46
2018-11-12T02:34:37.956Z,938.45
2018-11-12T02:35:38.600Z,938.4
2018-11-12T02:36:39.506Z,938.4
2018-11-12T02:37:39.855Z,938.32
2018-11-12T02:38:40.227Z,938.38
2018-11-12T02:39:41.138Z,938.34
2018-11-12T02:40:42.088Z,938.37
2018-11-12T02:41:42.734Z,938.42
2018-11-12T02:42:43.805Z,938.39
2018-11-12T02:43:44.650Z,938.36
2018-11-12T02:44:45.443Z,938.36
2018-11-12T02:45:45.967Z,938.33
2018-11-12T02:46:47.325Z,938.38
2018-11-12T02:47:48.402Z,938.35
2018-11-12T02:48:49.896Z,938.31
2018-11-12T02:49:50.525Z,938.34
2018-11-12T02:50:51.156Z,938.36
2018-11-12T02:51:52.240Z,938.35
2018-11-12T02:52:53.595Z,938.3
2018-11-12T02:53:53.999Z,938.32
2018-11-12T02:54:54.629Z,938.35
2018-11-12T02:55:55.265Z,938.32
2018-11-12T02:56:56.342Z,938.39
2018-11-12T02:57:57.410Z,938.37
2018-11-12T02:58:58.490Z,938.34
2018-11-12T02:59:59.063Z,938.38
2018-11-12T03:01:00.025Z,938.36
2018-11-12T03:02:01.117Z,938.38
2018-11-12T03:03:01.913Z,938.38
2018-11-12T03:04:02.754Z,938.37
2018-11-12T03:05:03.999Z,938.39
2018-11-12T03:06:04.361Z,938.44
2018-11-12T03:07:04.895Z,938.44
2018-11-12T03:08:05.954Z,938.44
2018-11-12T03:09:06.761Z,938.47
2018-11-12T03:10:07.834Z,938.51
2018-11-12T03:11:09.318Z,938.48
2018-11-12T03:12:09.841Z,938.44
2018-11-12T03:13:10.191Z,938.49
2018-11-12T03:14:11.156Z,938.47
2018-11-12T03:15:12.233Z,938.42
2018-11-12T03:16:12.870Z,938.49
2018-11-12T03:17:13.666Z,938.47
2018-11-12T03:18:14.744Z,938.54
2018-11-12T03:19:15.536Z,938.49
2018-11-12T03:20:15.887Z,938.5
2018-11-12T03:21:16.977Z,938.52
2018-11-12T03:22:18.191Z,938.47
2018-11-12T03:23:18.990Z,938.51
2018-11-12T03:24:19.861Z,938.52
2018-11-12T03:25:20.220Z,938.51
2018-11-12T03:26:20.849Z,938.49
2018-11-12T03:27:21.203Z,938.54
2018-11-12T03:28:21.944Z,938.46
2018-11-12T03:29:22.303Z,938.53
2018-11-12T03:30:23.695Z,938.51
2018-11-12T03:31:24.633Z,938.51
2018-11-12T03:32:25.844Z,938.48
2018-11-12T03:33:26.645Z,938.48
2018-11-12T03:34:27.612Z,938.51
2018-11-12T03:35:28.418Z,938.52
2018-11-12T03:36:29.492Z,938.52
2018-11-12T03:37:30.565Z,938.58
2018-11-12T03:38:31.363Z,938.58
2018-11-12T03:39:32.760Z,938.57
2018-11-12T03:40:34.157Z,938.55
2018-11-12T03:41:35.229Z,938.56
2018-11-12T03:42:35.580Z,938.54
2018-11-12T03:43:35.934Z,938.53
2018-11-12T03:44:36.910Z,938.49
2018-11-12T03:45:37.263Z,938.49
2018-11-12T03:46:37.617Z,938.5
2018-11-12T03:47:38.691Z,938.48
2018-11-12T03:48:40.042Z,938.4
2018-11-12T03:49:40.836Z,938.42
2018-11-12T03:50:41.915Z,938.43
2018-11-12T03:51:43.434Z,938.37
2018-11-12T03:52:44.075Z,938.38
2018-11-12T03:53:44.735Z,938.33
2018-11-12T03:54:45.691Z,938.35
2018-11-12T03:55:46.211Z,938.37
2018-11-12T03:56:47.010Z,938.42
2018-11-12T03:57:47.808Z,938.39
2018-11-12T03:58:48.726Z,938.41
2018-11-12T03:59:49.639Z,938.38
2018-11-12T04:00:50.882Z,938.38
2018-11-12T04:01:51.799Z,938.31
2018-11-12T04:02:52.595Z,938.32
2018-11-12T04:03:53.505Z,938.27
2018-11-12T04:04:54.468Z,938.23
2018-11-12T04:05:55.813Z,938.27
2018-11-12T04:06:56.718Z,938.23
2018-11-12T04:07:57.519Z,938.23
2018-11-12T04:08:58.205Z,938.24
2018-11-12T04:09:58.665Z,938.24
2018-11-12T04:10:59.467Z,938.2
2018-11-12T04:12:00.256Z,938.21
2018-11-12T04:13:00.619Z,938.24
2018-11-12T04:14:01.527Z,938.23
2018-11-12T04:15:02.407Z,938.22
2018-11-12T04:16:03.221Z,938.21
2018-11-12T04:17:03.863Z,938.23
2018-11-12T04:18:05.381Z,938.19
2018-11-12T04:19:06.294Z,938.17
2018-11-12T04:20:07.199Z,938.17
2018-11-12T04:21:07.720Z,938.15
2018-11-12T04:22:08.804Z,938.16
2018-11-12T04:23:09.876Z,938.13
2018-11-12T04:24:10.393Z,938.13
2018-11-12T04:25:11.102Z,938.17
2018-11-12T04:26:11.450Z,938.13
2018-11-12T04:27:12.246Z,938.17
2018-11-12T04:28:12.761Z,938.15
2018-11-12T04:29:13.437Z,938.15
2018-11-12T04:30:14.932Z,938.12
2018-11-12T04:31:16.011Z,938.15
2018-11-12T04:32:16.640Z,938.11
2018-11-12T04:33:17.161Z,938.09
2018-11-12T04:34:17.792Z,938.05
2018-11-12T04:35:18.640Z,937.99
2018-11-12T04:36:19.877Z,937.98
2018-11-12T04:37:20.511Z,937.97
2018-11-12T04:38:21.696Z,937.94
2018-11-12T04:39:22.501Z,937.87
2018-11-12T04:40:23.583Z,937.91
2018-11-12T04:41:24.677Z,937.92
2018-11-12T04:42:25.750Z,937.95
2018-11-12T04:43:26.995Z,938.01
2018-11-12T04:44:27.355Z,938
2018-11-12T04:45:28.664Z,938.04
2018-11-12T04:46:29.184Z,938.07
2018-11-12T04:47:29.991Z,938.11
2018-11-12T04:48:31.062Z,938.14
2018-11-12T04:49:32.304Z,938.16
2018-11-12T04:50:33.379Z,938.19
2018-11-12T04:51:34.459Z,938.15
2018-11-12T04:52:35.258Z,938.11
2018-11-12T04:53:36.510Z,938.14
2018-11-12T04:54:36.849Z,938.16
2018-11-12T04:55:38.087Z,938.11
2018-11-12T04:56:38.716Z,938.12
2018-11-12T04:57:39.793Z,938.11
2018-11-12T04:58:40.706Z,938.13
2018-11-12T04:59:41.864Z,938.13
2018-11-12T05:00:43.215Z,938.15
2018-11-12T05:01:44.652Z,938.1
2018-11-12T05:02:45.405Z,938.09
2018-11-12T05:03:46.484Z,938.08
2018-11-12T05:04:47.115Z,938.06
2018-11-12T05:05:48.370Z,938.08
2018-11-12T05:06:49.446Z,938.07
2018-11-12T05:07:49.803Z,938.1
2018-11-12T05:08:50.884Z,938.05
2018-11-12T05:09:51.956Z,938.06
2018-11-12T05:10:52.313Z,938.01
2018-11-12T05:11:53.422Z,938.04
2018-11-12T05:12:54.330Z,938.03
2018-11-12T05:13:55.131Z,938.08
2018-11-12T05:14:56.483Z,938.04
2018-11-12T05:15:57.883Z,938.05
2018-11-12T05:16:59.250Z,938.07
2018-11-12T05:18:00.331Z,938.05
2018-11-12T05:19:00.957Z,938.01
2018-11-12T05:20:01.603Z,938.03
2018-11-12T05:21:01.972Z,938.03
2018-11-12T05:22:02.605Z,938.09
2018-11-12T05:23:03.683Z,938.01
2018-11-12T05:24:05.204Z,938.03
2018-11-12T05:25:06.005Z,938.04
2018-11-12T05:26:06.710Z,938.03
2018-11-12T05:27:07.790Z,938.05
2018-11-12T05:28:09.265Z,938.08
2018-11-12T05:29:10.176Z,938.09
2018-11-12T05:30:10.520Z,938.09
2018-11-12T05:31:11.428Z,938.15
2018-11-12T05:32:11.782Z,938.07
2018-11-12T05:33:12.305Z,938.14
2018-11-12T05:34:13.378Z,938.16
2018-11-12T05:35:14.465Z,938.15
2018-11-12T05:36:15.865Z,938.13
2018-11-12T05:37:16.945Z,938.13
2018-11-12T05:38:18.235Z,938.1
2018-11-12T05:39:19.562Z,938.08
2018-11-12T05:40:20.634Z,938.05
2018-11-12T05:41:21.271Z,938.07
2018-11-12T05:42:22.346Z,938.07
2018-11-12T05:43:23.429Z,938.09
2018-11-12T05:44:24.511Z,938.1
2018-11-12T05:45:25.307Z,938.05
2018-11-12T05:46:26.445Z,938.06
2018-11-12T05:47:26.794Z,938.05
2018-11-12T05:48:28.151Z,938.03
2018-11-12T05:49:28.947Z,938.01
2018-11-12T05:50:30.198Z,938.03
2018-11-12T05:51:31.441Z,938.01
2018-11-12T05:52:31.920Z,938.04
2018-11-12T05:53:32.992Z,938.06
2018-11-12T05:54:33.789Z,938.11
2018-11-12T05:55:34.309Z,938.12
2018-11-12T05:56:35.154Z,938.17
2018-11-12T05:57:35.970Z,938.2
2018-11-12T05:58:36.770Z,938.23
2018-11-12T05:59:37.293Z,938.17
2018-11-12T06:00:38.369Z,938.19
2018-11-12T06:01:39.173Z,938.19
2018-11-12T06:02:39.977Z,938.15
2018-11-12T06:03:40.500Z,938.17
2018-11-12T06:04:41.637Z,938.16
2018-11-12T06:05:42.588Z,938.12
2018-11-12T06:06:43.718Z,938.17
2018-11-12T06:07:44.243Z,938.2
2018-11-12T06:08:44.878Z,938.21
2018-11-12T06:09:45.957Z,938.2
2018-11-12T06:10:46.598Z,938.22
2018-11-12T06:11:47.397Z,938.22
2018-11-12T06:12:48.750Z,938.23
2018-11-12T06:13:49.830Z,938.25
2018-11-12T06:14:51.071Z,938.34
2018-11-12T06:15:51.879Z,938.34
2018-11-12T06:16:52.287Z,938.29
2018-11-12T06:17:53.361Z,938.27
2018-11-12T06:18:54.443Z,938.24
2018-11-12T06:19:55.526Z,938.24
2018-11-12T06:20:56.048Z,938.23
2018-11-12T06:21:56.701Z,938.25
2018-11-12T06:22:57.779Z,938.24
2018-11-12T06:23:58.304Z,938.24
2018-11-12T06:24:59.544Z,938.27
2018-11-12T06:26:00.067Z,938.29
2018-11-12T06:27:00.635Z,938.3
2018-11-12T06:28:01.732Z,938.31
2018-11-12T06:29:02.977Z,938.33
2018-11-12T06:30:03.329Z,938.29
2018-11-12T06:31:04.982Z,938.32
2018-11-12T06:32:06.123Z,938.28
2018-11-12T06:33:06.645Z,938.32
2018-11-12T06:34:07.275Z,938.25
2018-11-12T06:35:08.076Z,938.32
2018-11-12T06:36:08.433Z,938.31
2018-11-12T06:37:08.725Z,938.38
2018-11-12T06:38:09.972Z,938.43
2018-11-12T06:39:10.767Z,938.42
2018-11-12T06:40:11.569Z,938.42
2018-11-12T06:41:12.485Z,938.43
2018-11-12T06:42:13.892Z,938.42
2018-11-12T06:43:15.142Z,938.41
2018-11-12T06:44:16.117Z,938.41
2018-11-12T06:45:16.922Z,938.42
2018-11-12T06:46:17.329Z,938.44
2018-11-12T06:47:17.593Z,938.45
2018-11-12T06:48:18.672Z,938.45
2018-11-12T06:49:19.728Z,938.44
2018-11-12T06:50:20.508Z,938.51
2018-11-12T06:51:21.322Z,938.48
2018-11-12T06:52:22.129Z,938.5
2018-11-12T06:53:23.697Z,938.53
2018-11-12T06:54:24.574Z,938.49
2018-11-12T06:55:25.440Z,938.54
2018-11-12T06:56:25.964Z,938.52
2018-11-12T06:57:26.756Z,938.5
2018-11-12T06:58:27.040Z,938.5
2018-11-12T06:59:28.036Z,938.51
2018-11-12T07:00:28.562Z,938.49
2018-11-12T07:01:29.551Z,938.5
2018-11-12T07:02:30.365Z,938.51
2018-11-12T07:03:30.903Z,938.5
2018-11-12T07:04:31.402Z,938.5
2018-11-12T07:05:31.915Z,938.51
2018-11-12T07:06:33.177Z,938.54
2018-11-12T07:07:34.179Z,938.5
2018-11-12T07:08:35.275Z,938.53
2018-11-12T07:09:36.084Z,938.54
2018-11-12T07:10:37.313Z,938.54
2018-11-12T07:11:38.403Z,938.59
2018-11-12T07:12:39.483Z,938.61
2018-11-12T07:13:39.844Z,938.71
2018-11-12T07:14:40.926Z,938.68
2018-11-12T07:15:42.012Z,938.74
2018-11-12T07:16:42.677Z,938.75
2018-11-12T07:17:43.306Z,938.84
2018-11-12T07:18:44.774Z,938.84
2018-11-12T07:19:45.728Z,938.79
2018-11-12T07:20:46.994Z,938.77
2018-11-12T07:21:47.961Z,938.81
2018-11-12T07:22:48.326Z,938.76
2018-11-12T07:23:48.962Z,938.78
2018-11-12T07:24:49.893Z,938.71
2018-11-12T07:25:50.982Z,938.7
2018-11-12T07:26:51.512Z,938.73
2018-11-12T07:27:52.375Z,938.72
2018-11-12T07:28:52.744Z,938.7
2018-11-12T07:29:53.832Z,938.7
2018-11-12T07:30:55.246Z,938.75
2018-11-12T07:31:55.953Z,938.71
2018-11-12T07:32:56.874Z,938.71
2018-11-12T07:33:57.269Z,938.74
2018-11-12T07:34:58.080Z,938.7
2018-11-12T07:35:58.894Z,938.71
2018-11-12T07:36:59.705Z,938.68
2018-11-12T07:38:00.649Z,938.7
2018-11-12T07:39:01.225Z,938.67
2018-11-12T07:40:02.591Z,938.63
2018-11-12T07:41:03.404Z,938.61
2018-11-12T07:42:04.716Z,938.68
2018-11-12T07:43:05.793Z,938.65
2018-11-12T07:44:06.176Z,938.62
2018-11-12T07:45:07.265Z,938.61
2018-11-12T07:46:08.197Z,938.61
2018-11-12T07:47:09.020Z,938.63
2018-11-12T07:48:10.089Z,938.65
2018-11-12T07:49:10.735Z,938.68
2018-11-12T07:50:11.549Z,938.66
2018-11-12T07:51:12.261Z,938.72
2018-11-12T07:52:12.655Z,938.72
2018-11-12T07:53:13.914Z,938.68
2018-11-12T07:54:15.178Z,938.69
2018-11-12T07:55:16.394Z,938.69
2018-11-12T07:56:17.523Z,938.68
2018-11-12T07:57:18.778Z,938.74
2018-11-12T07:58:19.925Z,938.74
2018-11-12T07:59:21.019Z,938.78
2018-11-12T08:00:21.834Z,938.77
2018-11-12T08:01:22.204Z,938.82
2018-11-12T08:02:23.353Z,938.8
2018-11-12T08:03:24.237Z,938.77
2018-11-12T08:04:25.347Z,938.75
2018-11-12T08:05:26.171Z,938.76
2018-11-12T08:06:26.532Z,938.68
2018-11-12T08:07:27.344Z,938.67
2018-11-12T08:08:27.973Z,938.66
2018-11-12T08:09:29.125Z,938.62
2018-11-12T08:10:29.695Z,938.59
2018-11-12T08:11:30.060Z,938.53
2018-11-12T08:12:30.905Z,938.59
2018-11-12T08:13:31.616Z,938.47
2018-11-12T08:14:33.341Z,938.47
2018-11-12T08:15:33.724Z,938.49
2018-11-12T08:16:34.801Z,938.52
2018-11-12T08:17:36.253Z,938.49
2018-11-12T08:18:37.078Z,938.52
2018-11-12T08:19:37.664Z,938.56
2018-11-12T08:20:39.032Z,938.49
2018-11-12T08:21:40.735Z,938.52
2018-11-12T08:22:41.617Z,938.5
2018-11-12T08:23:42.559Z,938.49
2018-11-12T08:24:43.214Z,938.48
2018-11-12T08:25:43.586Z,938.47
2018-11-12T08:26:44.846Z,938.41
2018-11-12T08:27:46.143Z,938.3
2018-11-12T08:28:46.469Z,938.29
2018-11-12T08:29:47.366Z,938.27
2018-11-12T08:30:47.736Z,938.17
2018-11-12T08:31:48.825Z,938.23
2018-11-12T08:32:50.014Z,938.17
2018-11-12T08:33:50.461Z,938.11
2018-11-12T08:34:51.118Z,938.05
2018-11-12T08:35:51.758Z,938.06
2018-11-12T08:36:52.129Z,938.04
2018-11-12T08:37:52.947Z,937.98
2018-11-12T08:38:53.817Z,938.05
2018-11-12T08:39:54.517Z,938.03
2018-11-12T08:40:55.537Z,938.14
2018-11-12T08:41:55.955Z,938.17
2018-11-12T08:42:57.041Z,938.15
2018-11-12T08:43:57.575Z,938.17
2018-11-12T08:44:58.384Z,938.17
2018-11-12T08:45:59.624Z,938.17
2018-11-12T08:47:00.112Z,938.2
2018-11-12T08:48:01.200Z,938.17
2018-11-12T08:49:01.726Z,938.13
2018-11-12T08:50:02.506Z,938.15
2018-11-12T08:51:03.144Z,938.14
2018-11-12T08:52:04.523Z,938.15
2018-11-12T08:53:05.201Z,938.16
2018-11-12T08:54:05.632Z,938.19
2018-11-12T08:55:06.847Z,938.18
2018-11-12T08:56:07.226Z,938.2
2018-11-12T08:57:07.824Z,938.19
2018-11-12T08:58:10.305Z,938.17
2018-11-12T08:58:21.757Z,938.19
2018-11-12T08:59:22.805Z,938.18
2018-11-12T09:00:23.612Z,938.21
2018-11-12T09:01:24.871Z,938.19
2018-11-12T09:02:25.232Z,938.2
2018-11-12T09:03:26.441Z,938.15
2018-11-12T09:04:27.577Z,938.15
2018-11-12T09:05:28.404Z,938.14
2018-11-12T09:06:29.335Z,938.18
2018-11-12T09:07:29.868Z,938.22
2018-11-12T09:08:30.398Z,938.2
2018-11-12T09:09:31.534Z,938.12
2018-11-12T09:10:32.638Z,938.19
2018-11-12T09:11:33.295Z,938.19
2018-11-12T09:12:34.388Z,938.22
2018-11-12T09:13:35.795Z,938.27
2018-11-12T09:14:37.053Z,938.31
2018-11-12T09:15:38.758Z,938.26
2018-11-12T09:16:39.894Z,938.25
2018-11-12T09:17:40.479Z,938.2
2018-11-12T09:18:41.709Z,938.2
2018-11-12T09:19:42.643Z,938.25
2018-11-12T09:20:43.294Z,938.24
2018-11-12T09:21:44.119Z,938.27
2018-11-12T09:22:44.926Z,938.23
2018-11-12T09:23:45.610Z,938.22
2018-11-12T09:24:46.423Z,938.27
2018-11-12T09:25:47.332Z,938.3
2018-11-12T09:26:47.777Z,938.28
2018-11-12T09:27:48.149Z,938.29
2018-11-12T09:28:48.962Z,938.31
2018-11-12T09:29:50.035Z,938.26
2018-11-12T09:30:52.406Z,938.24
2018-11-12T09:31:04.309Z,938.28
2018-11-12T09:31:16.502Z,938.33
2018-11-12T09:31:27.882Z,938.37
2018-11-12T09:32:28.500Z,938.4
2018-11-12T09:33:29.579Z,938.34
2018-11-12T09:34:30.405Z,938.41
2018-11-12T09:35:30.935Z,938.41
2018-11-12T09:36:32.603Z,938.44
2018-11-12T09:37:33.157Z,938.4
2018-11-12T09:38:33.888Z,938.44
2018-11-12T09:39:34.845Z,938.42
2018-11-12T09:40:35.711Z,938.39
2018-11-12T09:41:36.207Z,938.39
2018-11-12T09:42:36.792Z,938.44
2018-11-12T09:43:38.155Z,938.4
2018-11-12T09:44:40.286Z,938.36
2018-11-12T09:45:40.993Z,938.44
2018-11-12T09:46:41.490Z,938.48
2018-11-12T09:47:41.906Z,938.46
2018-11-12T09:48:42.980Z,938.47
2018-11-12T09:49:43.773Z,938.46
2018-11-12T09:50:44.584Z,938.43
2018-11-12T09:51:45.527Z,938.43
2018-11-12T09:52:46.416Z,938.42
2018-11-12T09:53:47.218Z,938.42
2018-11-12T09:54:48.057Z,938.42
2018-11-12T09:55:49.445Z,938.42
2018-11-12T09:56:50.987Z,938.41
2018-11-12T09:57:52.674Z,938.38
2018-11-12T09:58:53.614Z,938.41
2018-11-12T09:59:54.553Z,938.42
2018-11-12T10:00:56.603Z,938.43
2018-11-12T10:01:08.136Z,938.44
2018-11-12T10:02:10.809Z,938.4
2018-11-12T10:03:13.118Z,938.43
2018-11-12T10:04:12.843Z,938.44
2018-11-12T10:04:24.921Z,938.51
2018-11-12T10:04:37.780Z,938.44
2018-11-12T10:04:49.519Z,938.38
2018-11-12T10:05:01.583Z,938.47
2018-11-12T10:05:13.416Z,938.43
2018-11-12T10:05:25.874Z,938.39
2018-11-12T10:05:38.237Z,938.44
2018-11-12T10:05:50.373Z,938.44
2018-11-12T10:06:01.716Z,938.45
2018-11-12T10:06:13.443Z,938.48
2018-11-12T10:06:26.120Z,938.48
2018-11-12T10:06:38.369Z,938.45
2018-11-12T10:06:50.927Z,938.4
2018-11-12T10:07:02.816Z,938.4
2018-11-12T10:07:19.040Z,938.41
2018-11-12T10:07:32.371Z,938.41
2018-11-12T10:07:44.119Z,938.4
2018-11-12T10:07:55.909Z,938.38
2018-11-12T10:08:07.695Z,938.42
2018-11-12T10:08:20.083Z,938.4
2018-11-12T10:08:33.192Z,938.37
2018-11-12T10:08:44.500Z,938.42
2018-11-12T10:08:56.207Z,938.38
2018-11-12T10:09:08.805Z,938.42
2018-11-12T10:09:21.693Z,938.42
2018-11-12T10:09:33.332Z,938.41
2018-11-12T10:09:45.844Z,938.42
2018-11-12T10:09:57.865Z,938.44
2018-11-12T10:10:11.719Z,938.47
2018-11-12T10:10:19.417Z,938.42
2018-11-12T10:10:31.353Z,938.42
2018-11-12T10:10:43.652Z,938.39
2018-11-12T10:10:56.156Z,938.39
2018-11-12T10:11:07.754Z,938.44
2018-11-12T10:11:20.065Z,938.42
2018-11-12T10:11:33.062Z,938.43
2018-11-12T10:11:45.054Z,938.43
2018-11-12T10:11:56.828Z,938.51
2018-11-12T10:12:09.151Z,938.45
2018-11-12T10:12:21.385Z,938.48
2018-11-12T10:12:33.703Z,938.45
2018-11-12T10:12:47.669Z,938.51
2018-11-12T10:12:58.427Z,938.51
2018-11-12T10:13:12.153Z,938.5
2018-11-12T10:13:19.508Z,938.46
2018-11-12T10:13:31.789Z,938.5
2018-11-12T10:13:44.977Z,938.47
2018-11-12T10:13:57.597Z,938.51
2018-11-12T10:14:11.506Z,938.55
2018-11-12T10:14:22.972Z,938.47
2018-11-12T10:14:35.950Z,938.5
2018-11-12T10:14:48.130Z,938.46
2018-11-12T10:15:01.641Z,938.51
2018-11-12T10:15:12.878Z,938.48
2018-11-12T10:15:24.531Z,938.47
2018-11-12T10:15:36.862Z,938.48
2018-11-12T10:15:49.466Z,938.49
2018-11-12T10:16:00.999Z,938.56
2018-11-12T10:16:13.909Z,938.51
2018-11-12T10:16:19.844Z,938.53
2018-11-12T10:16:32.381Z,938.45
2018-11-12T10:16:43.888Z,938.48
2018-11-12T10:16:56.828Z,938.48
2018-11-12T10:17:10.779Z,938.42
2018-11-12T10:17:22.913Z,938.44
2018-11-12T10:17:34.681Z,938.42
2018-11-12T10:17:46.604Z,938.45
2018-11-12T10:17:57.995Z,938.45
2018-11-12T10:18:09.205Z,938.41
2018-11-12T10:18:19.958Z,938.42
2018-11-12T10:19:16.743Z,938.4
2018-11-12T10:20:17.794Z,938.46
2018-11-12T10:21:18.745Z,938.47
2018-11-12T10:22:19.847Z,938.45
2018-11-12T10:23:20.735Z,938.54
2018-11-12T10:24:21.549Z,938.63
2018-11-12T10:25:22.377Z,938.54
2018-11-12T10:26:23.415Z,938.58
2018-11-12T10:27:24.583Z,938.54
2018-11-12T10:28:25.677Z,938.49
2018-11-12T10:29:26.223Z,938.5
2018-11-12T10:30:26.831Z,938.49
2018-11-12T10:31:27.653Z,938.55
2018-11-12T10:32:28.030Z,938.58
2018-11-12T10:33:29.124Z,938.6
2018-11-12T10:34:30.223Z,938.58
2018-11-12T10:35:30.598Z,938.51
2018-11-12T10:36:31.919Z,938.5
2018-11-12T10:37:33.015Z,938.53
2018-11-12T10:38:34.395Z,938.42
2018-11-12T10:39:35.515Z,938.47
2018-11-12T10:40:36.314Z,938.47
2018-11-12T10:41:37.414Z,938.5
2018-11-12T10:42:37.831Z,938.53
2018-11-12T10:43:38.686Z,938.55
2018-11-12T10:44:40.602Z,938.64
2018-11-12T10:45:41.721Z,938.57
2018-11-12T10:46:42.647Z,938.53
2018-11-12T10:47:43.475Z,938.55
2018-11-12T10:48:44.694Z,938.65
2018-11-12T10:49:45.955Z,938.62
2018-11-12T10:50:46.558Z,938.58
2018-11-12T10:51:05.035Z,938.54
2018-11-12T10:51:12.443Z,938.59
2018-11-12T10:52:13.085Z,938.53
2018-11-12T10:53:14.787Z,938.6
2018-11-12T10:53:25.574Z,938.58
2018-11-12T10:53:37.464Z,938.58
2018-11-12T10:53:50.699Z,938.6
2018-11-12T10:54:02.991Z,938.57
2018-11-12T10:54:15.510Z,938.57
2018-11-12T10:54:27.597Z,938.56
2018-11-12T10:54:39.848Z,938.55
2018-11-12T10:55:40.928Z,938.61
2018-11-12T10:56:41.250Z,938.6
2018-11-12T10:57:42.478Z,938.6
2018-11-12T10:58:43.115Z,938.69
2018-11-12T10:59:44.381Z,938.69
2018-11-12T11:00:45.638Z,938.66
2018-11-12T11:01:46.573Z,938.66
2018-11-12T11:02:47.996Z,938.65
2018-11-12T11:03:49.059Z,938.67
2018-11-12T11:04:49.900Z,938.62
2018-11-12T11:05:50.240Z,938.67
2018-11-12T11:06:51.059Z,938.74
2018-11-12T11:07:52.170Z,938.71
2018-11-12T11:08:52.983Z,938.67
2018-11-12T11:09:53.803Z,938.68
2018-11-12T11:10:54.669Z,938.67
2018-11-12T11:11:55.211Z,938.68
2018-11-12T11:12:55.864Z,938.63
2018-11-12T11:13:56.962Z,938.6
2018-11-12T11:14:58.224Z,938.59
2018-11-12T11:15:58.816Z,938.59
2018-11-12T11:16:59.746Z,938.54
2018-11-12T11:18:00.847Z,938.5
2018-11-12T11:19:01.672Z,938.48
2018-11-12T11:20:02.494Z,938.53
2018-11-12T11:21:03.358Z,938.54
2018-11-12T11:22:04.562Z,938.47
2018-11-12T11:23:05.447Z,938.5
2018-11-12T11:24:05.958Z,938.53
2018-11-12T11:25:07.217Z,938.52
2018-11-12T11:26:07.902Z,938.48
2018-11-12T11:27:08.725Z,938.53
2018-11-12T11:28:10.123Z,938.53
2018-11-12T11:29:10.890Z,938.5
2018-11-12T11:30:11.430Z,938.46
2018-11-12T11:31:12.247Z,938.43
2018-11-12T11:32:13.074Z,938.5
2018-11-12T11:33:14.171Z,938.48